• Join FlightAware (Why Join?)
  • Login
  • US Flag 
04:47PM EST


 

Airport Tracker/Info


-or-


 

Live Flight TrackerFlight Track Log ✈ ANT506 ✈ 14-May-2013 ✈ CYVR - CYXY

Flight Track Log - Related Links

Times and Time Zones

All times are in EDT time to prevent confusion due to time zone crossing. See the ANT506 flight status page for this flight to view local times or setup timezone preferences in your user account.

Time Position Orientation Groundspeed Altitude Reporting Facility
EDT Latitude Longitude Course Direction KTS MPH feet Rate Location/Type
02:33PM 49.1667 -123.1667 327° Northwest 160 184 1,100  Level Vancouver Center
02:34PM 49.1500 -123.0667 104° East 220 253 2,800 2,100 Climbing Vancouver Center
02:35PM 49.1500 -122.9833 90° East 220 253 5,300 2,400 Climbing Vancouver Center
02:36PM 49.2167 -122.9833 360° North 250 288 7,600 2,450 Climbing Vancouver Center
02:37PM 49.2833 -123.0000 351° North 280 322 10,200 2,400 Climbing Vancouver Center
02:38PM 49.8469 -123.7602 334° Northwest  Level FlightAware Approximate
02:38PM 49.3667 -123.0500 339° North 320 368 12,400  Level Vancouver Center
02:39PM 49.9430 -123.8430 327° Northwest  Level FlightAware Approximate
02:39PM 49.4667 -123.0833 348° North 330 380 15,200  Level Vancouver Center
02:40PM 49.5667 -123.0500 12° North 370 426 17,200 2,050 Climbing Vancouver Center
02:41PM 49.6833 -123.0500 360° North 400 460 19,300 2,050 Climbing Vancouver Center
02:42PM 49.8000 -123.0667 355° North 410 472 21,300 2,000 Climbing Vancouver Center
02:43PM 49.9000 -123.1333 337° Northwest 420 483 23,300 1,850 Climbing Vancouver Center
02:44PM 50.0000 -123.2000 337° Northwest 420 483 25,000 1,800 Climbing Vancouver Center
02:45PM 50.1167 -123.2833 335° Northwest 430 495 26,900 1,000 Climbing Vancouver Center
02:46PM 50.2167 -123.3500 337° Northwest 430 495 27,000 1,250 Climbing Vancouver Center
02:47PM 50.3333 -123.4667 327° Northwest 430 495 29,400 2,550 Climbing Vancouver Center
02:48PM 50.4167 -123.5167 339° North 390 449 32,100 1,900 Climbing Vancouver Center
02:49PM 50.5167 -123.5833 337° Northwest 380 437 33,200 1,100 Climbing Vancouver Center
02:51PM 50.6337 -123.6836 334° Northwest  Level FlightAware Approximate
02:51PM 50.7167 -123.7500 334° Northwest 400 460 35,400  Level Vancouver Center
02:52PM 50.8167 -123.8167 337° Northwest 410 472 36,000 300 Climbing Vancouver Center
02:53PM 50.9167 -123.9333 324° Northwest 410 472 36,000  Level Vancouver Center
02:54PM 51.0167 -124.0167 332° Northwest 410 472 36,000  Level Vancouver Center
02:55PM 51.1167 -124.0833 337° Northwest 410 472 36,000  Level Vancouver Center
02:56PM 51.2167 -124.1667 332° Northwest 410 472 36,000  Level Vancouver Center
02:57PM 51.3333 -124.2500 336° Northwest 420 483 36,000  Level Vancouver Center
02:58PM 51.4333 -124.3333 333° Northwest 410 472 36,000  Level Vancouver Center
02:59PM 51.5333 -124.4167 333° Northwest 410 472 36,000  Level Vancouver Center
03:00PM 51.6333 -124.5000 333° Northwest 420 483 36,000  Level Vancouver Center
03:01PM 51.7333 -124.5833 333° Northwest 420 483 36,000  Level Vancouver Center
03:02PM 51.8333 -124.6667 333° Northwest 420 483 36,000  Level Vancouver Center
03:03PM 51.9500 -124.7667 332° Northwest 420 483 36,000  Level Vancouver Center
03:04PM 52.0500 -124.8500 333° Northwest 420 483 36,000  Level Vancouver Center
03:05PM 52.1500 -124.9333 333° Northwest 420 483 36,000  Level Vancouver Center
03:06PM 52.2500 -125.0167 333° Northwest 420 483 36,000  Level Vancouver Center
03:07PM 52.3667 -125.1333 329° Northwest 420 483 36,000  Level Vancouver Center
03:08PM 52.4667 -125.2167 333° Northwest 420 483 36,000  Level Vancouver Center
03:09PM 52.5667 -125.3000 333° Northwest 420 483 36,000  Level Vancouver Center
03:10PM 52.6833 -125.4000 333° Northwest 420 483 36,000  Level Vancouver Center
03:11PM 52.7833 -125.4833 333° Northwest 430 495 36,000  Level Vancouver Center
03:12PM 52.8833 -125.6000 325° Northwest 420 483 36,000  Level Vancouver Center
03:13PM 52.9833 -125.6833 333° Northwest 430 495 36,000  Level Vancouver Center
03:14PM 53.1000 -125.7667 337° Northwest 420 483 36,000  Level Vancouver Center
03:15PM 53.2000 -125.8667 329° Northwest 420 483 36,000  Level Vancouver Center
03:16PM 53.3000 -125.9500 334° Northwest 420 483 36,000  Level Vancouver Center
03:17PM 53.4000 -126.0667 325° Northwest 420 483 36,000  Level Vancouver Center
03:18PM 53.5000 -126.1500 334° Northwest 420 483 36,000  Level Vancouver Center
03:19PM 53.6000 -126.2500 329° Northwest 420 483 36,000  Level Vancouver Center
03:20PM 53.7000 -126.3333 334° Northwest 420 483 36,000  Level Vancouver Center
03:21PM 53.8167 -126.4333 333° Northwest 420 483 36,000  Level Vancouver Center
03:22PM 53.9167 -126.5500 326° Northwest 420 483 36,000  Level Vancouver Center
03:23PM 54.0167 -126.6333 334° Northwest 420 483 36,000  Level Vancouver Center
03:24PM 54.1333 -126.7333 333° Northwest 420 483 36,000  Level Vancouver Center
03:25PM 54.2333 -126.8167 334° Northwest 420 483 36,000  Level Vancouver Center
03:26PM 54.3167 -126.9167 325° Northwest 420 483 36,000  Level Vancouver Center
03:27PM 54.4167 -127.0167 330° Northwest 420 483 36,000  Level Vancouver Center
03:28PM 54.5167 -127.1000 334° Northwest 420 483 36,000  Level Vancouver Center
03:29PM 54.6333 -127.2333 327° Northwest 420 483 36,000  Level Vancouver Center
03:30PM 54.7333 -127.3167 334° Northwest 420 483 36,000  Level Vancouver Center
03:31PM 54.8333 -127.4167 330° Northwest 420 483 36,000  Level Vancouver Center
03:32PM 54.9333 -127.5167 330° Northwest 440 506 36,000  Level Vancouver Center
03:33PM 55.0333 -127.6333 326° Northwest 420 483 36,000  Level Vancouver Center
03:34PM 55.1333 -127.7333 330° Northwest 430 495 36,000  Level Vancouver Center
03:35PM 55.2500 -127.8333 334° Northwest 420 483 36,000  Level Vancouver Center
03:36PM 55.3500 -127.9333 330° Northwest 410 472 36,000  Level Vancouver Center
03:37PM 55.4500 -128.0333 330° Northwest 420 483 36,000  Level Vancouver Center
03:38PM 55.5333 -128.1333 326° Northwest 410 472 36,000  Level Vancouver Center
03:39PM 55.6333 -128.2500 327° Northwest 420 483 36,000  Level Vancouver Center
03:40PM 55.7333 -128.3500 331° Northwest 420 483 36,000  Level Vancouver Center
03:41PM 55.8500 -128.4667 331° Northwest 420 483 36,000  Level Vancouver Center
03:42PM 55.9333 -128.5667 326° Northwest 420 483 36,000  Level Vancouver Center
03:43PM 56.0333 -128.6667 331° Northwest 420 483 36,000  Level Vancouver Center
03:44PM 56.1333 -128.7667 331° Northwest 420 483 36,000  Level Vancouver Center
03:45PM 56.2333 -128.9000 323° Northwest 420 483 36,000  Level Vancouver Center
03:46PM 56.3500 -129.0000 335° Northwest 420 483 36,000  Level Vancouver Center
03:47PM 56.4333 -129.1000 326° Northwest 420 483 36,000  Level Vancouver Center
03:48PM 56.5500 -129.2333 328° Northwest 430 495 36,000  Level Vancouver Center
03:49PM 56.6500 -129.3500 327° Northwest 440 506 36,000  Level Vancouver Center
03:50PM 56.7333 -129.4167 336° Northwest 430 495 36,000  Level Vancouver Center
03:51PM 56.8500 -129.5500 328° Northwest 420 483 36,000  Level Vancouver Center
03:52PM 56.9333 -129.6833 319° Northwest 430 495 36,000  Level Vancouver Center
03:53PM 57.0333 -129.8333 321° Northwest 420 483 36,000  Level Vancouver Center
03:54PM 57.1333 -129.9333 332° Northwest 420 483 36,000  Level Vancouver Center
03:56PM 57.2424 -130.0697 326° Northwest  Level FlightAware Approximate
04:03PM 57.8537 -130.8733 324° Northwest  Level FlightAware Approximate
04:04PM 57.9393 -130.9937 323° Northwest  Level FlightAware Approximate
04:05PM 58.0248 -131.1147 323° Northwest  Level FlightAware Approximate
04:06PM 58.1101 -131.2362 323° Northwest  Level FlightAware Approximate
04:07PM 58.1954 -131.3583 323° Northwest  Level FlightAware Approximate
04:08PM 58.2805 -131.4810 323° Northwest  Level FlightAware Approximate
04:09PM 58.3661 -131.6028 324° Northwest  Level FlightAware Approximate
04:10PM 58.4519 -131.7242 324° Northwest  Level FlightAware Approximate
04:11PM 58.5376 -131.8463 323° Northwest  Level FlightAware Approximate
04:12PM 58.6233 -131.9689 323° Northwest  Level FlightAware Approximate
04:13PM 58.7062 -132.0982 321° Northwest  Level FlightAware Approximate
04:14PM 58.7888 -132.2290 321° Northwest  Level FlightAware Approximate
04:15PM 58.8731 -132.3556 324° Northwest  Level FlightAware Approximate
04:16PM 58.9593 -132.4780 323° Northwest  Level FlightAware Approximate
04:17PM 59.0450 -132.6019 323° Northwest  Level FlightAware Approximate
04:18PM 59.1284 -132.7317 321° Northwest  Level FlightAware Approximate
04:19PM 59.2110 -132.8640 321° Northwest  Level FlightAware Approximate
04:20PM 59.2952 -132.9927 323° Northwest  Level FlightAware Approximate
04:21PM 59.3782 -133.1246 321° Northwest  Level FlightAware Approximate
04:22PM 59.4609 -133.2574 321° Northwest  Level FlightAware Approximate
04:23PM 59.5492 -133.3755 321° Northwest  Level FlightAware Approximate
04:24PM 59.6321 -133.5088 321° Northwest  Level FlightAware Approximate
04:25PM 59.7148 -133.6427 321° Northwest  Level FlightAware Approximate
04:26PM 59.7974 -133.7773 321° Northwest  Level FlightAware Approximate
04:27PM 59.8798 -133.9125 321° Northwest  Level FlightAware Approximate
04:28PM 59.9622 -134.0484 320° Northwest  Level FlightAware Approximate
04:29PM 60.0444 -134.1850 320° Northwest  Level FlightAware Approximate
04:30PM 60.1265 -134.3219 320° Northwest  Level FlightAware Approximate
04:31PM 60.2096 -134.4570 321° Northwest  Level FlightAware Approximate
04:32PM 60.2923 -134.5933 320° Northwest  Level FlightAware Approximate
04:33PM 60.3741 -134.7322 320° Northwest  Level FlightAware Approximate
04:34PM 60.4563 -134.8705 321° Northwest  Level FlightAware Approximate
04:35PM 60.5397 -135.0060 321° Northwest  Level FlightAware Approximate
04:36PM 60.6230 -135.1271 26° Northeast  Level FlightAware Approximate
04:37PM 60.7000 -135.0667 20° North  Level FlightAware Approximate
04:38PM 60.7095 -135.0673 20° North  Level Estimated
04:39PM 60.7095 -135.0673 20° North  Level Estimated
04:40PM 60.7095 -135.0673 20° North  Level Estimated
04:41PM 60.7095 -135.0673 20° North  Level Estimated
04:42PM 60.7095 -135.0673 20° North  Level Estimated
04:43PM 60.7095 -135.0673 20° North  Level Estimated
04:44PM 60.7095 -135.0673 20° North  Level Estimated